Latest Weather Observations for Parafield

IDS60901

Issued at 9:41 pm CST Friday 8 May 2026 (issued every 10 minutes, with the page automatically refreshed every 10 minutes)

About weather observations | Map of Adelaide area stations | Latest observations for Adelaide area | Other Formats
Station Details ID: 023013 Name: PARAFIELD AIRPORT Lat: -34.80 Lon: 138.63 Height: 9.5 m
Data from the previous 72 hours. | See also: Recent months at Parafield
Date/Time
CST
Temp
°C
App
Temp
°C
Dew
Point
°C
Rel
Hum
%
Delta-T
°C
Wind Press
QNH
hPa
Press
MSL
hPa
Rain since
9am
mm
Dir  Spd
km/h
Gust
km/h
Spd
kts
Gust
kts
08/09:30pm 11.4 9.7 9.8 90 0.8 S 9 11 5 6 1030.6 1030.6 0.6
08/09:00pm 11.4 9.2 9.3 87 1.0 S 11 13 6 7 1030.4 1030.4 0.6
08/08:30pm 12.3 10.5 9.5 83 1.4 S 9 13 5 7 1030.3 1030.3 0.6
08/08:00pm 12.8 10.3 9.6 81 1.6 SSW 13 17 7 9 1030.3 1030.3 0.6
08/07:30pm 13.4 11.4 10.0 80 1.7 S 11 13 6 7 1030.1 1030.1 0.6
08/07:00pm 14.8 12.7 11.2 79 1.9 SSW 13 15 7 8 1030.0 1030.0 0.6
08/06:30pm 14.8 12.8 11.6 81 1.7 SSW 13 17 7 9 1029.9 1029.9 0.6
08/06:00pm 14.8 12.1 11.6 81 1.7 SW 17 22 9 12 1029.7 1029.7 0.6
08/05:30pm 15.2 11.8 11.4 78 2.0 SW 20 28 11 15 1029.5 1029.5 0.6
08/05:00pm 15.7 12.6 11.5 76 2.3 SSW 19 28 10 15 1029.4 1029.4 0.6
08/04:30pm 16.6 13.2 11.3 71 2.8 SW 20 28 11 15 1029.3 1029.3 0.6
08/04:00pm 16.4 12.7 11.6 73 2.6 SW 22 30 12 16 1029.3 1029.3 0.6
08/03:30pm 17.6 13.5 11.6 68 3.3 SW 24 32 13 17 1029.3 1029.3 0.6
08/03:00pm 17.9 13.9 11.7 67 3.4 SW 24 32 13 17 1029.2 1029.2 0.6
08/02:30pm 18.0 13.9 11.3 65 3.6 WSW 24 32 13 17 1029.3 1029.3 0.6
08/02:05pm 17.6 14.5 12.1 70 3.0 SW 20 26 11 14 1029.5 1029.5 0.6
08/02:00pm 17.7 14.8 13.0 74 2.6 SW 20 28 11 15 1029.5 1029.5 0.6
08/01:30pm 15.9 13.0 13.0 83 1.6 SSW 20 30 11 16 1029.8 1029.8 0.6
08/01:00pm 15.6 12.6 13.8 89 1.0 WSW 22 32 12 17 1030.2 1030.2 0.4
08/12:56pm 15.8 13.1 13.6 87 1.2 WSW 20 32 11 17 1030.2 1030.2 0.4
08/12:30pm 15.6 13.0 13.3 86 1.3 SW 19 28 10 15 1030.5 1030.5 0.4
08/12:00pm 15.8 13.0 13.1 84 1.5 SW 20 28 11 15 1030.9 1030.9 0.4
08/11:55am 15.9 13.4 13.4 85 1.4 SW 19 26 10 14 1030.9 1030.9 0.4
08/11:45am 15.9 13.5 13.9 88 1.1 WSW 19 24 10 13 1031.0 1031.0 0.4
08/11:43am 16.3 14.6 14.8 91 0.9 WSW 17 24 9 13 1031.1 1031.1 0.4
08/11:32am 15.0 11.9 13.4 90 0.9 SW 22 32 12 17 1031.3 1031.3 0.4
08/11:30am 14.8 11.1 12.7 87 1.1 SSW 24 32 13 17 1031.2 1031.2 0.4
08/11:12am 14.9 12.7 13.3 90 0.9 SW 17 26 9 14 1031.4 1031.4 0.2
08/11:00am 15.5 14.0 13.2 86 1.3 SW 13 20 7 11 1031.5 1031.5 0.0
08/10:30am 14.6 13.4 12.8 89 1.0 S 11 15 6 8 1031.8 1031.8 0.0
08/10:00am 14.6 12.5 12.3 86 1.3 SSW 15 20 8 11 1031.7 1031.7 0.0
08/09:49am 14.8 11.5 11.0 78 2.0 SSW 19 28 10 15 1031.5 1031.5 0.0
08/09:30am 15.8 12.3 10.3 70 2.9 SW 19 26 10 14 1031.4 1031.4 0.0
08/09:00am 14.9 10.6 10.7 76 2.2 SSW 24 32 13 17 1031.4 1031.4 0.0
08/08:30am 15.4 11.8 9.7 69 2.9 SW 19 26 10 14 1031.2 1031.2 0.0
08/08:00am 15.2 11.4 9.8 70 2.8 SW 20 26 11 14 1030.9 1030.9 0.0
08/07:30am 14.9 11.6 9.5 70 2.8 SW 17 20 9 11 1030.4 1030.4 0.0
08/07:00am 14.1 13.0 9.9 76 2.2 SSW 6 15 3 8 1030.2 1030.2 0.0
08/06:30am 13.7 12.6 10.1 79 1.8 SE 6 7 3 4 1030.0 1030.0 0.0
08/06:00am 13.7 12.4 10.1 79 1.8 SSE 7 9 4 5 1030.0 1030.0 0.0
08/05:30am 13.9 11.9 10.1 78 2.0 S 11 13 6 7 1030.0 1030.0 0.0
08/05:00am 13.9 12.5 9.5 75 2.3 S 7 11 4 6 1030.1 1030.1 0.0
08/04:30am 13.7 13.6 9.6 76 2.1 CALM 0 0 0 0 1029.9 1029.9 0.0
08/04:00am 13.8 12.0 9.6 76 2.2 S 9 11 5 6 1029.9 1029.9 0.0
08/03:30am 14.1 11.3 9.9 76 2.2 S 15 19 8 10 1029.9 1029.9 0.0
08/03:00am 13.6 11.8 9.5 76 2.1 S 9 13 5 7 1030.0 1030.0 0.0
08/02:30am 13.6 12.2 9.6 77 2.0 S 7 13 4 7 1030.1 1030.1 0.0
08/02:00am 14.2 11.2 9.4 73 2.5 SSW 15 20 8 11 1030.3 1030.3 0.0
08/01:30am 14.7 11.2 8.6 67 3.1 SW 17 30 9 16 1030.2 1030.2 0.0
08/01:00am 14.6 10.7 8.5 67 3.1 SSW 19 26 10 14 1030.4 1030.4 0.0
08/12:30am 14.6 10.9 7.9 64 3.3 SW 17 24 9 13 1030.4 1030.4 0.0
08/12:00am 14.2 10.8 7.7 65 3.2 SW 15 19 8 10 1030.5 1030.5 0.0
 
Date/Time
CST
Temp
°C
App
Temp
°C
Dew
Point
°C
Rel
Hum
%
Delta-T
°C
Wind Press
QNH
hPa
Press
MSL
hPa
Rain since
9am
mm
Dir  Spd
km/h
Gust
km/h
Spd
kts
Gust
kts
07/11:30pm 13.1 11.6 8.6 74 2.2 SSW 6 7 3 4 1030.5 1030.5 0.0
07/11:00pm 12.9 10.9 8.8 76 2.1 S 9 13 5 7 1030.7 1030.7 0.0
07/10:30pm 12.8 11.2 8.7 76 2.0 S 7 9 4 5 1030.7 1030.7 0.0
07/10:00pm 12.7 10.9 9.3 80 1.7 SSE 9 11 5 6 1031.0 1031.0 0.0
07/09:30pm 13.0 10.0 9.4 79 1.8 SW 15 20 8 11 1031.0 1031.0 0.0
07/09:00pm 13.8 9.9 8.8 72 2.5 SSW 19 32 10 17 1031.0 1031.0 0.0
07/08:30pm 13.8 10.5 6.4 61 3.5 SSW 13 15 7 8 1030.9 1030.9 0.0
07/08:00pm 13.9 9.8 6.3 60 3.6 SSW 17 20 9 11 1031.0 1031.0 0.0
07/07:30pm 13.1 10.7 6.9 66 3.0 S 9 11 5 6 1030.9 1030.9 0.0
07/07:00pm 13.0 10.0 6.1 63 3.3 S 11 17 6 9 1030.8 1030.8 0.0
07/06:30pm 13.7 10.8 6.6 62 3.4 S 11 15 6 8 1030.6 1030.6 0.0
07/06:00pm 12.9 9.6 6.3 64 3.1 SSW 13 20 7 11 1030.3 1030.3 0.0
07/05:30pm 14.0 8.3 5.1 55 4.1 SSW 24 30 13 16 1030.3 1030.3 0.0
07/05:00pm 14.7 10.0 6.0 56 4.2 SSW 20 26 11 14 1030.2 1030.2 0.0
07/04:30pm 15.2 10.4 4.6 49 4.9 SSW 19 26 10 14 1030.1 1030.1 0.0
07/04:00pm 15.6 11.4 5.5 51 4.8 SSW 17 26 9 14 1030.1 1030.1 0.0
07/03:30pm 15.6 9.9 4.9 49 5.0 SW 24 35 13 19 1030.1 1030.1 0.0
07/03:00pm 15.5 11.0 6.0 53 4.5 SSW 19 28 10 15 1030.1 1030.1 0.0
07/02:30pm 15.8 10.2 5.4 50 4.9 SSW 24 32 13 17 1030.1 1030.1 0.0
07/02:00pm 16.3 10.5 4.4 45 5.6 SW 24 35 13 19 1030.1 1030.1 0.0
07/01:30pm 17.2 12.4 5.5 46 5.6 SSW 20 32 11 17 1030.3 1030.3 0.0
07/01:00pm 16.5 11.6 4.9 46 5.5 SSW 20 30 11 16 1030.3 1030.3 0.0
07/12:30pm 15.6 10.8 4.6 48 5.1 S 19 30 10 16 1030.5 1030.5 0.0
07/12:00pm 15.9 11.1 4.9 48 5.1 SSW 19 28 10 15 1030.8 1030.8 0.0
07/11:30am 15.5 10.1 4.6 48 5.1 SSW 22 28 12 15 1031.0 1031.0 0.0
07/11:00am 15.6 10.8 4.6 48 5.1 S 19 28 10 15 1031.1 1031.1 0.0
07/10:30am 15.9 11.1 4.9 48 5.1 SSE 19 30 10 16 1030.8 1030.8 0.0
07/10:00am 14.8 9.2 5.3 53 4.5 SSW 24 30 13 16 1030.7 1030.7 0.0
07/09:30am 14.2 10.1 6.1 58 3.8 S 17 28 9 15 1030.8 1030.8 0.0
07/09:00am 12.2 8.5 6.3 67 2.8 S 15 17 8 9 1030.6 1030.6 0.8
07/08:30am 12.2 11.1 6.7 69 2.6 SW 2 7 1 4 1030.3 1030.3 0.8
07/08:00am 11.3 9.7 8.0 80 1.6 SE 6 7 3 4 1030.0 1030.0 0.8
07/07:30am 8.3 6.0 5.8 84 1.1 ESE 7 7 4 4 1029.6 1029.6 0.8
07/07:00am 7.4 6.3 5.2 86 1.0 CALM 0 0 0 0 1029.3 1029.3 0.8
07/06:30am 8.0 7.0 5.5 84 1.1 CALM 0 0 0 0 1028.9 1028.9 0.8
07/06:00am 8.6 5.8 5.0 78 1.6 S 9 13 5 7 1028.6 1028.6 0.8
07/05:30am 10.4 6.9 5.6 72 2.2 S 13 17 7 9 1028.4 1028.4 0.8
07/05:00am 9.9 6.8 5.5 74 2.0 SSE 11 13 6 7 1028.1 1028.1 0.8
07/04:30am 10.9 7.0 5.4 69 2.5 SSW 15 20 8 11 1027.8 1027.8 0.8
07/04:00am 11.0 7.5 5.3 68 2.6 S 13 17 7 9 1027.5 1027.5 0.8
07/03:30am 10.3 7.2 5.5 72 2.2 S 11 13 6 7 1027.4 1027.4 0.8
07/03:00am 10.8 8.4 5.3 69 2.5 SE 7 7 4 4 1027.6 1027.6 0.8
07/02:30am 9.9 7.5 5.1 72 2.2 ESE 7 9 4 5 1027.5 1027.5 0.8
07/02:00am 10.6 6.9 4.7 67 2.7 SSW 13 17 7 9 1027.6 1027.6 0.8
07/01:30am 12.4 7.9 4.4 58 3.6 S 17 22 9 12 1027.4 1027.4 0.8
07/01:00am 13.1 7.9 3.5 52 4.3 S 20 35 11 19 1027.3 1027.3 0.8
07/12:30am 13.2 7.4 2.4 48 4.7 S 22 39 12 21 1027.1 1027.1 0.8
07/12:00am 13.0 8.4 3.7 53 4.2 S 17 26 9 14 1027.2 1027.2 0.8
 
Date/Time
CST
Temp
°C
App
Temp
°C
Dew
Point
°C
Rel
Hum
%
Delta-T
°C
Wind Press
QNH
hPa
Press
MSL
hPa
Rain since
9am
mm
Dir  Spd
km/h
Gust
km/h
Spd
kts
Gust
kts
06/11:30pm 13.2 7.4 4.4 55 4.0 SSW 24 33 13 18 1027.0 1027.0 0.8
06/11:00pm 13.0 7.8 5.4 60 3.5 S 22 28 12 15 1026.8 1026.8 0.8
06/10:30pm 13.1 8.6 6.2 63 3.3 S 19 24 10 13 1026.6 1026.6 0.8
06/10:00pm 13.7 8.4 6.6 62 3.4 S 24 32 13 17 1026.3 1026.2 0.8
06/09:30pm 13.7 9.4 7.9 68 2.9 S 20 26 11 14 1026.0 1025.9 0.8
06/09:00pm 13.6 9.6 8.9 73 2.4 S 20 30 11 16 1025.8 1025.7 0.8
06/08:30pm 13.7 9.4 9.4 75 2.2 SSW 22 28 12 15 1025.5 1025.4 0.8
06/08:00pm 13.5 9.7 9.9 79 1.9 S 20 30 11 16 1025.1 1025.0 0.8
06/07:30pm 14.1 10.5 10.7 80 1.8 S 20 30 11 16 1024.8 1024.7 0.8
06/07:00pm 14.2 9.4 11.7 85 1.3 SSW 28 39 15 21 1024.4 1024.3 0.8
06/06:30pm 15.2 12.1 12.2 82 1.6 SSW 20 30 11 16 1023.7 1023.6 0.8
06/06:00pm 15.3 12.8 12.4 83 1.6 SW 17 24 9 13 1023.3 1023.2 0.8
06/05:30pm 16.6 13.2 11.1 70 2.9 SW 20 28 11 15 1022.7 1022.6 0.8
06/05:00pm 16.6 12.9 10.2 66 3.4 SW 20 28 11 15 1022.6 1022.5 0.8
06/04:30pm 17.5 12.4 10.6 64 3.7 SW 28 35 15 19 1022.4 1022.3 0.8
06/04:00pm 18.0 13.7 10.9 63 3.8 SW 24 33 13 18 1022.3 1022.2 0.8
06/03:30pm 18.0 13.4 11.1 64 3.7 SW 26 35 14 19 1022.2 1022.1 0.8
06/03:00pm 17.2 12.3 11.2 68 3.2 SW 28 39 15 21 1022.0 1021.9 0.8
06/02:44pm 16.5 13.2 12.7 78 2.1 SW 22 32 12 17 1022.1 1022.0 0.8
06/02:33pm 15.8 10.3 12.5 81 1.8 SW 33 43 18 23 1022.2 1022.1 0.8
06/02:30pm 15.7 10.3 12.3 80 1.9 SW 32 43 17 23 1022.2 1022.1 0.8
06/02:12pm 16.9 13.2 12.8 77 2.3 SW 24 33 13 18 1022.0 1021.9 0.8
06/02:00pm 17.2 13.7 13.3 78 2.2 SW 24 33 13 18 1022.1 1022.0 0.8
06/01:30pm 17.2 13.5 12.7 75 2.5 WSW 24 35 13 19 1022.1 1022.0 0.8
06/01:17pm 16.9 13.9 13.8 82 1.8 SW 22 33 12 18 1022.3 1022.2 0.8
06/01:00pm 16.5 12.4 14.9 90 0.9 WSW 30 41 16 22 1022.3 1022.2 0.8
06/12:31pm 16.1 12.4 13.8 86 1.3 WNW 26 37 14 20 1022.8 1022.7 0.6
06/12:30pm 16.2 12.3 13.3 83 1.6 WNW 26 37 14 20 1022.8 1022.7 0.4
06/12:18pm 17.7 14.4 12.8 73 2.7 NW 22 32 12 17 1022.8 1022.7 0.0
06/12:00pm 17.9 14.2 12.6 71 2.9 WNW 24 30 13 16 1023.1 1023.0 0.0
06/11:30am 18.1 15.1 12.1 68 3.3 WNW 19 30 10 16 1023.4 1023.3 0.0
06/11:11am 18.6 15.5 11.7 64 3.8 WNW 19 30 10 16 1023.6 1023.5 0.0
06/11:00am 18.3 15.2 12.1 67 3.4 WNW 20 26 11 14 1023.7 1023.6 0.0
06/10:44am 17.4 14.4 12.5 73 2.7 NW 20 24 11 13 1023.7 1023.6 0.0
06/10:30am 17.1 14.9 13.2 78 2.2 NW 17 22 9 12 1023.7 1023.6 0.0
06/10:00am 15.8 14.1 12.4 80 1.9 NNW 13 17 7 9 1023.9 1023.8 0.0
06/09:38am 15.2 13.5 12.5 84 1.5 N 13 17 7 9 1024.0 1023.9 0.0
06/09:30am 15.4 14.1 12.5 83 1.6 N 11 17 6 9 1024.0 1023.9 0.0
06/09:00am 15.5 13.9 12.8 84 1.5 N 13 17 7 9 1024.0 1023.9 0.0
06/08:30am 14.3 12.6 12.3 88 1.1 NNW 13 17 7 9 1023.9 1023.8 0.0
06/08:00am 14.4 12.8 11.7 84 1.4 N 11 15 6 8 1023.6 1023.5 0.0
06/07:30am 14.0 13.2 11.7 86 1.2 NE 7 9 4 5 1023.4 1023.3 0.0
06/07:00am 13.9 12.6 11.4 85 1.3 N 9 11 5 6 1023.2 1023.1 0.0
06/06:30am 13.9 12.9 10.9 82 1.6 N 7 11 4 6 1023.1 1023.0 0.0
06/06:00am 13.9 12.4 10.7 81 1.7 NNE 9 13 5 7 1023.0 1022.9 0.0
06/05:30am 13.7 12.6 10.7 82 1.6 NNE 7 9 4 5 1023.0 1022.9 0.0
06/05:00am 13.7 12.3 11.0 84 1.4 NE 9 11 5 6 1023.0 1022.9 0.0
06/04:30am 13.8 12.8 11.0 83 1.5 NNE 7 9 4 5 1022.9 1022.8 0.0
06/04:00am 13.7 11.9 10.9 83 1.5 NE 11 11 6 6 1023.0 1022.9 0.0
06/03:30am 13.6 12.3 11.1 85 1.3 NE 9 11 5 6 1023.0 1022.9 0.0
06/03:00am 13.5 12.1 11.0 85 1.3 NE 9 11 5 6 1023.1 1023.0 0.0
06/02:30am 13.6 11.8 10.8 83 1.5 NE 11 13 6 7 1023.2 1023.1 0.0
06/02:00am 13.8 12.6 11.5 86 1.2 NE 9 11 5 6 1023.5 1023.4 0.0
06/01:30am 13.9 12.7 11.6 86 1.2 NE 9 11 5 6 1023.7 1023.6 0.0
06/01:00am 14.0 12.8 11.7 86 1.2 NE 9 11 5 6 1023.8 1023.7 0.0
06/12:30am 14.2 13.3 11.4 83 1.5 NNE 7 9 4 5 1024.0 1023.9 0.0
06/12:00am 14.0 12.6 10.8 81 1.7 SSE 9 13 5 7 1024.0 1023.9 0.0
 
Date/Time
CST
Temp
°C
App
Temp
°C
Dew
Point
°C
Rel
Hum
%
Delta-T
°C
Wind Press
QNH
hPa
Press
MSL
hPa
Rain since
9am
mm
Dir  Spd
km/h
Gust
km/h
Spd
kts
Gust
kts
05/11:30pm 14.2 13.4 11.0 81 1.7 NNE 6 7 3 4 1024.0 1023.9 0.0
05/11:00pm 14.0 12.9 10.8 81 1.7 NE 7 9 4 5 1024.3 1024.2 0.0
05/10:30pm 14.0 13.0 11.0 82 1.6 NE 7 7 4 4 1024.6 1024.5 0.0
05/10:00pm 14.1 14.2 10.1 77 2.1 CALM 0 0 0 0 1024.7 1024.6 0.0

Latest Capital City Observations: Canberra | Sydney | Melbourne | Brisbane | Adelaide | Perth | Hobart | Darwin

Other formats

Comma delimited format used in spreadsheet applications
http://www.bom.gov.au/fwo/IDS60901/IDS60901.95677.axf

JavaScript Object Notation format (JSON) in row-major order
http://www.bom.gov.au/fwo/IDS60901/IDS60901.95677.json

Data quality

Most of these data are generated automatically and are frequently updated. Quality checks on data are not normally performed. It is possible for incorrect values to appear. Refer to information at About Latest Weather Observations and please check the disclaimer before using these data.